Voyager — WDE5209 — position and weather

sailwx.info

Track history (hours):
 
Tides and Currents Weather Stations Pressure Air Temp Water Temp Dewpoint Dewpoint Depression Visibility Wind Speed Wind Dir Waves Ship Positions

Voyager

Owner: Compass Rose Yacht Charters, LLC, Napa, CA. More information available from US FCC via Universal Licensing System and Coast Guard Vessel Documentation Center.

Last reported at 2017-Oct-15 00:24 UTC. Time now 2017-Oct-17 17:09 UTC.
Position N 37°52' W 122°19'.

Length 21 m; draft 20.3 m.

Type: Pleasure craft. MMSI: 367363460.

Date/timePositionNaut miles runAvg speedWind from/ knotsBaromVisibWave heightAir tempDewpointWater temp
2017-Oct-15 00:24N 37°52' W 122°19'0 0.1
2017-Oct-15 00:00N 37°52' W 122°19'3 6.6
2017-Oct-14 23:30N 37°51' W 122°23'4 7.2
2017-Oct-14 23:00N 37°50' W 122°27'1 1.7
2017-Oct-14 22:30N 37°50' W 122°26'3 6.7
2017-Oct-14 22:00N 37°51' W 122°22'3 5.6
2017-Oct-14 21:30N 37°52' W 122°19'0 0.2
2017-Oct-14 20:55N 37°52' W 122°19'0 0.0
2017-Oct-14 06:18N 37°52' W 122°19'0 0.2
2017-Oct-14 06:00N 37°52' W 122°19'4 7.6
2017-Oct-14 05:30N 37°50' W 122°23'2 4.4
2017-Oct-14 05:01N 37°48' W 122°23'1 1.0
2017-Oct-14 04:30N 37°48' W 122°23'2 4.3
2017-Oct-14 03:57N 37°50' W 122°21'3 6.6
2017-Oct-14 03:30N 37°52' W 122°19'0 0.0
2017-Oct-14 02:54N 37°52' W 122°19'0 0.1
2017-Oct-14 02:28N 37°52' W 122°19'0 0.0
2017-Oct-13 21:33N 37°52' W 122°19'0 0.0
2017-Oct-13 21:24N 37°52' W 122°19'0 0.1
2017-Oct-13 20:59N 37°52' W 122°19'3 5.6
2017-Oct-13 20:30N 37°51' W 122°22'4 7.9
2017-Oct-13 20:00N 37°50' W 122°27'2 3.9
2017-Oct-13 19:30N 37°49' W 122°29'2 4.6
2017-Oct-13 19:00N 37°50' W 122°27'4 8.3
2017-Oct-13 18:30N 37°51' W 122°21'2 4.2
2017-Oct-13 17:59N 37°52' W 122°19'0 0.1
2017-Oct-13 17:29N 37°52' W 122°19'  
2017-Oct-11 00:00N 37°52' W 122°19'0 0.0
2017-Oct-10 23:24N 37°52' W 122°19'0 0.0
2017-Oct-10 23:00N 37°52' W 122°19'3 5.5
2017-Oct-10 22:30N 37°50' W 122°21'3 6.5
2017-Oct-10 21:59N 37°47' W 122°23'0 0.5
2017-Oct-10 21:30N 37°47' W 122°23'4 8.6
2017-Oct-10 21:00N 37°49' W 122°27'1 1.6
2017-Oct-10 20:30N 37°50' W 122°28'3 6.7
2017-Oct-10 19:59N 37°49' W 122°24'2 3.7
2017-Oct-10 19:28N 37°47' W 122°23'0 0.6
2017-Oct-10 19:00N 37°47' W 122°23'2 3.8
2017-Oct-10 18:30N 37°48' W 122°22'4 8.1
2017-Oct-10 18:00N 37°52' W 122°19'0 0.9
2017-Oct-10 17:28N 37°52' W 122°19'0 0.0
2017-Oct-09 00:11N 37°52' W 122°19'0 0.2
2017-Oct-08 23:58N 37°52' W 122°19'2 5.0
2017-Oct-08 23:30N 37°51' W 122°21'2 4.2
2017-Oct-08 23:00N 37°49' W 122°23'3 5.0
2017-Oct-08 22:29N 37°50' W 122°26'0 0.6
2017-Oct-08 22:00N 37°49' W 122°26'2 4.4
2017-Oct-08 21:30N 37°49' W 122°28'2 3.5
2017-Oct-08 21:00N 37°49' W 122°26'1 1.4
2017-Oct-08 20:30N 37°50' W 122°26'4 7.6
2017-Oct-08 20:00N 37°51' W 122°21'2 3.8
2017-Oct-08 19:30N 37°52' W 122°19'0 0.0
2017-Oct-08 01:16N 37°52' W 122°19'0 0.4
2017-Oct-08 01:00N 37°52' W 122°19'2 4.3
2017-Oct-08 00:30N 37°51' W 122°21'4 8.0
2017-Oct-07 23:59N 37°47' W 122°23'0 0.6
2017-Oct-07 23:27N 37°47' W 122°23'2 4.8
2017-Oct-07 22:58N 37°49' W 122°24'1 2.6
2017-Oct-07 22:30N 37°49' W 122°25'0 0.6
2017-Oct-07 21:58N 37°49' W 122°25'2 4.4
2017-Oct-07 21:31N 37°49' W 122°28'3 5.8
2017-Oct-07 21:00N 37°49' W 122°24'2 4.2
2017-Oct-07 20:28N 37°47' W 122°23'0 0.1
2017-Oct-07 19:58N 37°47' W 122°23'1 1.2
2017-Oct-07 19:30N 37°47' W 122°23'5 9.0
2017-Oct-07 19:01N 37°51' W 122°20'1 0.1
2017-Oct-07 01:09N 37°52' W 122°19'0 0.0
2017-Oct-07 00:57N 37°52' W 122°19'0 0.1
2017-Oct-07 00:26N 37°52' W 122°19'2 4.0
2017-Oct-06 23:59N 37°51' W 122°21'4 9.3
2017-Oct-06 23:30N 37°47' W 122°23'2 4.1
2017-Oct-06 22:59N 37°49' W 122°24'2 3.3
2017-Oct-06 22:30N 37°49' W 122°26'1 1.7
2017-Oct-06 22:00N 37°49' W 122°27'0 0.7
2017-Oct-06 21:30N 37°49' W 122°26'0 0.5
2017-Oct-06 21:00N 37°49' W 122°26'0 1.0
2017-Oct-06 20:31N 37°49' W 122°27'0 0.8
2017-Oct-06 20:01N 37°50' W 122°27'4 7.3
2017-Oct-06 19:30N 37°51' W 122°22'3 0.2
2017-Oct-06 00:56N 37°52' W 122°19'3 6.7
2017-Oct-06 00:30N 37°50' W 122°22'4 5.8
2017-Oct-05 23:53N 37°47' W 122°23'0 0.8
2017-Oct-05 23:30N 37°47' W 122°23'0 1.0
2017-Oct-05 23:00N 37°47' W 122°23'2 3.4
2017-Oct-05 22:30N 37°49' W 122°21'3 5.7
2017-Oct-05 22:00N 37°50' W 122°25'2 3.6
2017-Oct-05 21:30N 37°49' W 122°27'0 1.0
2017-Oct-05 21:00N 37°50' W 122°27'3 6.8
2017-Oct-05 20:30N 37°48' W 122°23'1 1.5
2017-Oct-05 19:58N 37°47' W 122°23'1 1.7
2017-Oct-05 19:30N 37°47' W 122°22'5 9.7
2017-Oct-05 19:00N 37°52' W 122°20'  
Track history (hours):
 
Tides and Currents Weather Stations Pressure Air Temp Water Temp Dewpoint Dewpoint Depression Visibility Wind Speed Wind Dir Waves Ship Positions

Voyager

Owner: Compass Rose Yacht Charters, LLC, Napa, CA. More information available from US FCC via Universal Licensing System and Coast Guard Vessel Documentation Center.

Last reported at 2017-Oct-15 00:24 UTC. Time now 2017-Oct-17 17:09 UTC.
Position N 37°52' W 122°19'.

Length 21 m; draft 20.3 m.

Type: Pleasure craft. MMSI: 367363460.

Date/timePositionNaut miles runAvg speedWind from/ knotsBaromVisibWave heightAir tempDewpointWater temp
2017-Oct-15 00:24N 37°52' W 122°19'0 0.1
2017-Oct-15 00:00N 37°52' W 122°19'3 6.6
2017-Oct-14 23:30N 37°51' W 122°23'4 7.2
2017-Oct-14 23:00N 37°50' W 122°27'1 1.7
2017-Oct-14 22:30N 37°50' W 122°26'3 6.7
2017-Oct-14 22:00N 37°51' W 122°22'3 5.6
2017-Oct-14 21:30N 37°52' W 122°19'0 0.2
2017-Oct-14 20:55N 37°52' W 122°19'0 0.0
2017-Oct-14 06:18N 37°52' W 122°19'0 0.2
2017-Oct-14 06:00N 37°52' W 122°19'4 7.6
2017-Oct-14 05:30N 37°50' W 122°23'2 4.4
2017-Oct-14 05:01N 37°48' W 122°23'1 1.0
2017-Oct-14 04:30N 37°48' W 122°23'2 4.3
2017-Oct-14 03:57N 37°50' W 122°21'3 6.6
2017-Oct-14 03:30N 37°52' W 122°19'0 0.0
2017-Oct-14 02:54N 37°52' W 122°19'0 0.1
2017-Oct-14 02:28N 37°52' W 122°19'0 0.0
2017-Oct-13 21:33N 37°52' W 122°19'0 0.0
2017-Oct-13 21:24N 37°52' W 122°19'0 0.1
2017-Oct-13 20:59N 37°52' W 122°19'3 5.6
2017-Oct-13 20:30N 37°51' W 122°22'4 7.9
2017-Oct-13 20:00N 37°50' W 122°27'2 3.9
2017-Oct-13 19:30N 37°49' W 122°29'2 4.6
2017-Oct-13 19:00N 37°50' W 122°27'4 8.3
2017-Oct-13 18:30N 37°51' W 122°21'2 4.2
2017-Oct-13 17:59N 37°52' W 122°19'0 0.1
2017-Oct-13 17:29N 37°52' W 122°19'  
2017-Oct-11 00:00N 37°52' W 122°19'0 0.0
2017-Oct-10 23:24N 37°52' W 122°19'0 0.0
2017-Oct-10 23:00N 37°52' W 122°19'3 5.5
2017-Oct-10 22:30N 37°50' W 122°21'3 6.5
2017-Oct-10 21:59N 37°47' W 122°23'0 0.5
2017-Oct-10 21:30N 37°47' W 122°23'4 8.6
2017-Oct-10 21:00N 37°49' W 122°27'1 1.6
2017-Oct-10 20:30N 37°50' W 122°28'3 6.7
2017-Oct-10 19:59N 37°49' W 122°24'2 3.7
2017-Oct-10 19:28N 37°47' W 122°23'0 0.6
2017-Oct-10 19:00N 37°47' W 122°23'2 3.8
2017-Oct-10 18:30N 37°48' W 122°22'4 8.1
2017-Oct-10 18:00N 37°52' W 122°19'0 0.9
2017-Oct-10 17:28N 37°52' W 122°19'0 0.0
2017-Oct-09 00:11N 37°52' W 122°19'0 0.2
2017-Oct-08 23:58N 37°52' W 122°19'2 5.0
2017-Oct-08 23:30N 37°51' W 122°21'2 4.2
2017-Oct-08 23:00N 37°49' W 122°23'3 5.0
2017-Oct-08 22:29N 37°50' W 122°26'0 0.6
2017-Oct-08 22:00N 37°49' W 122°26'2 4.4
2017-Oct-08 21:30N 37°49' W 122°28'2 3.5
2017-Oct-08 21:00N 37°49' W 122°26'1 1.4
2017-Oct-08 20:30N 37°50' W 122°26'4 7.6
2017-Oct-08 20:00N 37°51' W 122°21'2 3.8
2017-Oct-08 19:30N 37°52' W 122°19'0 0.0
2017-Oct-08 01:16N 37°52' W 122°19'0 0.4
2017-Oct-08 01:00N 37°52' W 122°19'2 4.3
2017-Oct-08 00:30N 37°51' W 122°21'4 8.0
2017-Oct-07 23:59N 37°47' W 122°23'0 0.6
2017-Oct-07 23:27N 37°47' W 122°23'2 4.8
2017-Oct-07 22:58N 37°49' W 122°24'1 2.6
2017-Oct-07 22:30N 37°49' W 122°25'0 0.6
2017-Oct-07 21:58N 37°49' W 122°25'2 4.4
2017-Oct-07 21:31N 37°49' W 122°28'3 5.8
2017-Oct-07 21:00N 37°49' W 122°24'2 4.2
2017-Oct-07 20:28N 37°47' W 122°23'0 0.1
2017-Oct-07 19:58N 37°47' W 122°23'1 1.2
2017-Oct-07 19:30N 37°47' W 122°23'5 9.0
2017-Oct-07 19:01N 37°51' W 122°20'1 0.1
2017-Oct-07 01:09N 37°52' W 122°19'0 0.0
2017-Oct-07 00:57N 37°52' W 122°19'0 0.1
2017-Oct-07 00:26N 37°52' W 122°19'2 4.0
2017-Oct-06 23:59N 37°51' W 122°21'4 9.3
2017-Oct-06 23:30N 37°47' W 122°23'2 4.1
2017-Oct-06 22:59N 37°49' W 122°24'2 3.3
2017-Oct-06 22:30N 37°49' W 122°26'1 1.7
2017-Oct-06 22:00N 37°49' W 122°27'0 0.7
2017-Oct-06 21:30N 37°49' W 122°26'0 0.5
2017-Oct-06 21:00N 37°49' W 122°26'0 1.0
2017-Oct-06 20:31N 37°49' W 122°27'0 0.8
2017-Oct-06 20:01N 37°50' W 122°27'4 7.3
2017-Oct-06 19:30N 37°51' W 122°22'3 0.2
2017-Oct-06 00:56N 37°52' W 122°19'3 6.7
2017-Oct-06 00:30N 37°50' W 122°22'4 5.8
2017-Oct-05 23:53N 37°47' W 122°23'0 0.8
2017-Oct-05 23:30N 37°47' W 122°23'0 1.0
2017-Oct-05 23:00N 37°47' W 122°23'2 3.4
2017-Oct-05 22:30N 37°49' W 122°21'3 5.7
2017-Oct-05 22:00N 37°50' W 122°25'2 3.6
2017-Oct-05 21:30N 37°49' W 122°27'0 1.0
2017-Oct-05 21:00N 37°50' W 122°27'3 6.8
2017-Oct-05 20:30N 37°48' W 122°23'1 1.5
2017-Oct-05 19:58N 37°47' W 122°23'1 1.7
2017-Oct-05 19:30N 37°47' W 122°22'5 9.7
2017-Oct-05 19:00N 37°52' W 122°20'  

Dump ship's entire track history